sensor_id;sensor_type;location;lat;lon;timestamp;P1;P2;P0
83484;PMS5003;73420;32.678;-85.380;2024-03-08T00:00:20;7;7;
83484;PMS5003;73420;32.678;-85.380;2024-03-08T00:02:45;3;3;
83484;PMS5003;73420;32.678;-85.380;2024-03-08T00:05:11;6;5;
83484;PMS5003;73420;32.678;-85.380;2024-03-08T00:07:36;22;21;
83484;PMS5003;73420;32.678;-85.380;2024-03-08T00:10:01;25;21;
83484;PMS5003;73420;32.678;-85.380;2024-03-08T00:12:27;22;21;
83484;PMS5003;73420;32.678;-85.380;2024-03-08T00:14:52;12;11;
83484;PMS5003;73420;32.678;-85.380;2024-03-08T00:17:17;11;11;
83484;PMS5003;73420;32.678;-85.380;2024-03-08T00:19:43;11;11;
83484;PMS5003;73420;32.678;-85.380;2024-03-08T00:22:08;14;14;
83484;PMS5003;73420;32.678;-85.380;2024-03-08T00:24:34;30;30;
83484;PMS5003;73420;32.678;-85.380;2024-03-08T00:26:59;28;28;
83484;PMS5003;73420;32.678;-85.380;2024-03-08T00:29:25;25;24;
83484;PMS5003;73420;32.678;-85.380;2024-03-08T00:31:50;25;24;
83484;PMS5003;73420;32.678;-85.380;2024-03-08T00:34:16;45;44;
83484;PMS5003;73420;32.678;-85.380;2024-03-08T00:36:41;53;53;
83484;PMS5003;73420;32.678;-85.380;2024-03-08T00:39:07;64;62;
83484;PMS5003;73420;32.678;-85.380;2024-03-08T00:41:32;67;67;
83484;PMS5003;73420;32.678;-85.380;2024-03-08T00:43:57;68;68;
83484;PMS5003;73420;32.678;-85.380;2024-03-08T00:46:23;72;71;
83484;PMS5003;73420;32.678;-85.380;2024-03-08T00:48:48;50;49;
83484;PMS5003;73420;32.678;-85.380;2024-03-08T00:51:14;40;39;
83484;PMS5003;73420;32.678;-85.380;2024-03-08T00:53:39;21;21;
83484;PMS5003;73420;32.678;-85.380;2024-03-08T00:56:04;19;19;
83484;PMS5003;73420;32.678;-85.380;2024-03-08T00:58:29;40;39;
83484;PMS5003;73420;32.678;-85.380;2024-03-08T01:00:55;40;39;
83484;PMS5003;73420;32.678;-85.380;2024-03-08T01:03:21;35;35;
83484;PMS5003;73420;32.678;-85.380;2024-03-08T01:05:47;26;26;
83484;PMS5003;73420;32.678;-85.380;2024-03-08T01:08:12;39;38;
83484;PMS5003;73420;32.678;-85.380;2024-03-08T01:10:38;36;35;
83484;PMS5003;73420;32.678;-85.380;2024-03-08T01:13:03;18;17;
83484;PMS5003;73420;32.678;-85.380;2024-03-08T01:15:28;14;14;
83484;PMS5003;73420;32.678;-85.380;2024-03-08T01:17:54;9;9;
83484;PMS5003;73420;32.678;-85.380;2024-03-08T01:20:20;26;26;
83484;PMS5003;73420;32.678;-85.380;2024-03-08T01:22:44;9;8;
83484;PMS5003;73420;32.678;-85.380;2024-03-08T01:25:10;12;12;
83484;PMS5003;73420;32.678;-85.380;2024-03-08T01:27:35;32;31;
83484;PMS5003;73420;32.678;-85.380;2024-03-08T01:30:03;9;9;
83484;PMS5003;73420;32.678;-85.380;2024-03-08T01:32:26;3;3;
83484;PMS5003;73420;32.678;-85.380;2024-03-08T01:34:51;7;7;
83484;PMS5003;73420;32.678;-85.380;2024-03-08T01:37:17;12;11;
83484;PMS5003;73420;32.678;-85.380;2024-03-08T01:39:42;7;7;
83484;PMS5003;73420;32.678;-85.380;2024-03-08T01:42:08;8;8;
83484;PMS5003;73420;32.678;-85.380;2024-03-08T01:44:33;17;17;
83484;PMS5003;73420;32.678;-85.380;2024-03-08T01:46:58;21;21;
83484;PMS5003;73420;32.678;-85.380;2024-03-08T01:49:24;20;20;
83484;PMS5003;73420;32.678;-85.380;2024-03-08T01:51:49;9;9;
83484;PMS5003;73420;32.678;-85.380;2024-03-08T01:54:15;4;4;
83484;PMS5003;73420;32.678;-85.380;2024-03-08T01:56:40;8;6;
83484;PMS5003;73420;32.678;-85.380;2024-03-08T01:59:05;23;23;
83484;PMS5003;73420;32.678;-85.380;2024-03-08T02:01:31;6;6;
83484;PMS5003;73420;32.678;-85.380;2024-03-08T02:03:55;7;6;
83484;PMS5003;73420;32.678;-85.380;2024-03-08T02:06:21;6;6;
83484;PMS5003;73420;32.678;-85.380;2024-03-08T02:08:46;5;4;
83484;PMS5003;73420;32.678;-85.380;2024-03-08T02:11:12;8;8;
83484;PMS5003;73420;32.678;-85.380;2024-03-08T02:13:37;10;10;
83484;PMS5003;73420;32.678;-85.380;2024-03-08T02:16:02;11;11;
83484;PMS5003;73420;32.678;-85.380;2024-03-08T02:18:28;17;17;
83484;PMS5003;73420;32.678;-85.380;2024-03-08T02:20:53;18;18;
83484;PMS5003;73420;32.678;-85.380;2024-03-08T02:23:19;35;35;
83484;PMS5003;73420;32.678;-85.380;2024-03-08T02:25:45;18;18;
83484;PMS5003;73420;32.678;-85.380;2024-03-08T02:28:10;16;15;
83484;PMS5003;73420;32.678;-85.380;2024-03-08T02:30:35;24;24;
83484;PMS5003;73420;32.678;-85.380;2024-03-08T02:33:00;18;18;
83484;PMS5003;73420;32.678;-85.380;2024-03-08T02:35:26;24;23;
83484;PMS5003;73420;32.678;-85.380;2024-03-08T02:37:52;16;15;
83484;PMS5003;73420;32.678;-85.380;2024-03-08T02:40:17;17;16;
83484;PMS5003;73420;32.678;-85.380;2024-03-08T02:42:42;13;13;
83484;PMS5003;73420;32.678;-85.380;2024-03-08T02:45:08;17;16;
83484;PMS5003;73420;32.678;-85.380;2024-03-08T02:47:34;16;16;
83484;PMS5003;73420;32.678;-85.380;2024-03-08T02:49:59;10;9;
83484;PMS5003;73420;32.678;-85.380;2024-03-08T02:52:24;10;9;
83484;PMS5003;73420;32.678;-85.380;2024-03-08T02:54:50;10;8;
83484;PMS5003;73420;32.678;-85.380;2024-03-08T02:57:15;8;8;
83484;PMS5003;73420;32.678;-85.380;2024-03-08T02:59:40;9;9;
83484;PMS5003;73420;32.678;-85.380;2024-03-08T03:02:06;8;8;
83484;PMS5003;73420;32.678;-85.380;2024-03-08T03:04:31;7;5;
83484;PMS5003;73420;32.678;-85.380;2024-03-08T03:06:57;6;6;
83484;PMS5003;73420;32.678;-85.380;2024-03-08T03:09:22;4;3;
83484;PMS5003;73420;32.678;-85.380;2024-03-08T03:11:48;9;9;
83484;PMS5003;73420;32.678;-85.380;2024-03-08T03:14:13;9;8;
83484;PMS5003;73420;32.678;-85.380;2024-03-08T03:16:38;8;8;
83484;PMS5003;73420;32.678;-85.380;2024-03-08T03:19:03;9;9;
83484;PMS5003;73420;32.678;-85.380;2024-03-08T03:21:29;11;10;
83484;PMS5003;73420;32.678;-85.380;2024-03-08T03:23:54;13;10;
83484;PMS5003;73420;32.678;-85.380;2024-03-08T03:26:20;13;12;
83484;PMS5003;73420;32.678;-85.380;2024-03-08T03:28:45;11;11;
83484;PMS5003;73420;32.678;-85.380;2024-03-08T03:31:10;13;11;
83484;PMS5003;73420;32.678;-85.380;2024-03-08T03:33:36;13;12;
83484;PMS5003;73420;32.678;-85.380;2024-03-08T03:36:01;12;11;
83484;PMS5003;73420;32.678;-85.380;2024-03-08T03:38:27;10;10;
83484;PMS5003;73420;32.678;-85.380;2024-03-08T03:40:52;10;9;
83484;PMS5003;73420;32.678;-85.380;2024-03-08T03:43:17;10;10;
83484;PMS5003;73420;32.678;-85.380;2024-03-08T03:45:43;12;11;
83484;PMS5003;73420;32.678;-85.380;2024-03-08T03:48:08;8;7;
83484;PMS5003;73420;32.678;-85.380;2024-03-08T03:50:34;7;7;
83484;PMS5003;73420;32.678;-85.380;2024-03-08T03:52:59;8;8;
83484;PMS5003;73420;32.678;-85.380;2024-03-08T03:55:24;8;8;
83484;PMS5003;73420;32.678;-85.380;2024-03-08T03:57:50;6;6;
83484;PMS5003;73420;32.678;-85.380;2024-03-08T04:00:16;5;5;
83484;PMS5003;73420;32.678;-85.380;2024-03-08T04:02:40;8;8;
83484;PMS5003;73420;32.678;-85.380;2024-03-08T04:05:06;6;6;
83484;PMS5003;73420;32.678;-85.380;2024-03-08T04:07:31;7;7;
83484;PMS5003;73420;32.678;-85.380;2024-03-08T04:09:56;6;6;
83484;PMS5003;73420;32.678;-85.380;2024-03-08T04:12:22;8;7;
83484;PMS5003;73420;32.678;-85.380;2024-03-08T04:14:47;5;5;
83484;PMS5003;73420;32.678;-85.380;2024-03-08T04:17:12;9;8;
83484;PMS5003;73420;32.678;-85.380;2024-03-08T04:19:38;6;6;
83484;PMS5003;73420;32.678;-85.380;2024-03-08T04:22:03;6;6;
83484;PMS5003;73420;32.678;-85.380;2024-03-08T04:24:29;5;5;
83484;PMS5003;73420;32.678;-85.380;2024-03-08T04:26:54;6;6;
83484;PMS5003;73420;32.678;-85.380;2024-03-08T04:29:19;7;6;
83484;PMS5003;73420;32.678;-85.380;2024-03-08T04:31:44;7;7;
83484;PMS5003;73420;32.678;-85.380;2024-03-08T04:34:10;4;4;
83484;PMS5003;73420;32.678;-85.380;2024-03-08T04:36:35;7;7;
83484;PMS5003;73420;32.678;-85.380;2024-03-08T04:39:02;7;6;
83484;PMS5003;73420;32.678;-85.380;2024-03-08T04:41:26;6;6;
83484;PMS5003;73420;32.678;-85.380;2024-03-08T04:43:51;7;7;
83484;PMS5003;73420;32.678;-85.380;2024-03-08T04:46:17;12;12;
83484;PMS5003;73420;32.678;-85.380;2024-03-08T04:48:42;11;11;
83484;PMS5003;73420;32.678;-85.380;2024-03-08T04:51:08;9;9;
83484;PMS5003;73420;32.678;-85.380;2024-03-08T04:53:33;7;7;
83484;PMS5003;73420;32.678;-85.380;2024-03-08T04:55:58;7;7;
83484;PMS5003;73420;32.678;-85.380;2024-03-08T04:58:24;8;8;
83484;PMS5003;73420;32.678;-85.380;2024-03-08T05:00:49;7;6;
83484;PMS5003;73420;32.678;-85.380;2024-03-08T05:03:15;7;7;
83484;PMS5003;73420;32.678;-85.380;2024-03-08T05:05:40;6;6;
83484;PMS5003;73420;32.678;-85.380;2024-03-08T05:08:06;6;6;
83484;PMS5003;73420;32.678;-85.380;2024-03-08T05:10:31;8;8;
83484;PMS5003;73420;32.678;-85.380;2024-03-08T05:12:56;8;7;
83484;PMS5003;73420;32.678;-85.380;2024-03-08T05:15:22;11;9;
83484;PMS5003;73420;32.678;-85.380;2024-03-08T05:17:47;5;5;
83484;PMS5003;73420;32.678;-85.380;2024-03-08T05:20:12;6;6;
83484;PMS5003;73420;32.678;-85.380;2024-03-08T05:22:38;6;5;
83484;PMS5003;73420;32.678;-85.380;2024-03-08T05:25:04;8;8;
83484;PMS5003;73420;32.678;-85.380;2024-03-08T05:27:29;8;8;
83484;PMS5003;73420;32.678;-85.380;2024-03-08T05:29:54;7;7;
83484;PMS5003;73420;32.678;-85.380;2024-03-08T05:32:19;7;7;
83484;PMS5003;73420;32.678;-85.380;2024-03-08T05:34:45;8;8;
83484;PMS5003;73420;32.678;-85.380;2024-03-08T05:37:10;8;8;
83484;PMS5003;73420;32.678;-85.380;2024-03-08T05:39:36;10;10;
83484;PMS5003;73420;32.678;-85.380;2024-03-08T05:42:03;10;9;
83484;PMS5003;73420;32.678;-85.380;2024-03-08T05:44:26;8;8;
83484;PMS5003;73420;32.678;-85.380;2024-03-08T05:46:52;12;11;
83484;PMS5003;73420;32.678;-85.380;2024-03-08T05:49:17;9;8;
83484;PMS5003;73420;32.678;-85.380;2024-03-08T05:51:43;10;10;
83484;PMS5003;73420;32.678;-85.380;2024-03-08T05:54:09;11;11;
83484;PMS5003;73420;32.678;-85.380;2024-03-08T05:56:34;12;12;
83484;PMS5003;73420;32.678;-85.380;2024-03-08T05:58:59;10;10;
83484;PMS5003;73420;32.678;-85.380;2024-03-08T06:01:24;12;12;
83484;PMS5003;73420;32.678;-85.380;2024-03-08T06:03:50;11;10;
83484;PMS5003;73420;32.678;-85.380;2024-03-08T06:06:15;11;11;
83484;PMS5003;73420;32.678;-85.380;2024-03-08T06:08:41;11;10;
83484;PMS5003;73420;32.678;-85.380;2024-03-08T06:11:06;12;12;
83484;PMS5003;73420;32.678;-85.380;2024-03-08T06:13:31;12;12;
83484;PMS5003;73420;32.678;-85.380;2024-03-08T06:15:57;12;12;
83484;PMS5003;73420;32.678;-85.380;2024-03-08T06:18:22;10;10;
83484;PMS5003;73420;32.678;-85.380;2024-03-08T06:20:48;10;10;
83484;PMS5003;73420;32.678;-85.380;2024-03-08T06:23:13;11;11;
83484;PMS5003;73420;32.678;-85.380;2024-03-08T06:25:39;10;10;
83484;PMS5003;73420;32.678;-85.380;2024-03-08T06:28:05;10;10;
83484;PMS5003;73420;32.678;-85.380;2024-03-08T06:30:29;11;11;
83484;PMS5003;73420;32.678;-85.380;2024-03-08T06:32:55;8;8;
83484;PMS5003;73420;32.678;-85.380;2024-03-08T06:35:20;8;8;
83484;PMS5003;73420;32.678;-85.380;2024-03-08T06:37:45;10;9;
83484;PMS5003;73420;32.678;-85.380;2024-03-08T06:40:11;12;12;
83484;PMS5003;73420;32.678;-85.380;2024-03-08T06:42:36;12;12;
83484;PMS5003;73420;32.678;-85.380;2024-03-08T06:45:02;10;10;
83484;PMS5003;73420;32.678;-85.380;2024-03-08T06:47:26;10;9;
83484;PMS5003;73420;32.678;-85.380;2024-03-08T06:49:52;14;12;
83484;PMS5003;73420;32.678;-85.380;2024-03-08T06:52:17;13;12;
83484;PMS5003;73420;32.678;-85.380;2024-03-08T06:54:43;13;13;
83484;PMS5003;73420;32.678;-85.380;2024-03-08T06:57:08;14;12;
83484;PMS5003;73420;32.678;-85.380;2024-03-08T06:59:33;13;13;
83484;PMS5003;73420;32.678;-85.380;2024-03-08T07:01:58;19;19;
83484;PMS5003;73420;32.678;-85.380;2024-03-08T07:04:24;33;32;
83484;PMS5003;73420;32.678;-85.380;2024-03-08T07:06:49;62;62;
83484;PMS5003;73420;32.678;-85.380;2024-03-08T07:09:14;105;103;
83484;PMS5003;73420;32.678;-85.380;2024-03-08T07:11:40;105;105;
83484;PMS5003;73420;32.678;-85.380;2024-03-08T07:14:06;94;93;
83484;PMS5003;73420;32.678;-85.380;2024-03-08T07:16:31;86;85;
83484;PMS5003;73420;32.678;-85.380;2024-03-08T07:18:57;64;64;
83484;PMS5003;73420;32.678;-85.380;2024-03-08T07:21:23;46;46;
83484;PMS5003;73420;32.678;-85.380;2024-03-08T07:23:48;44;44;
83484;PMS5003;73420;32.678;-85.380;2024-03-08T07:26:15;35;34;
83484;PMS5003;73420;32.678;-85.380;2024-03-08T07:28:39;41;40;
83484;PMS5003;73420;32.678;-85.380;2024-03-08T07:31:04;35;34;
83484;PMS5003;73420;32.678;-85.380;2024-03-08T07:33:30;39;38;
83484;PMS5003;73420;32.678;-85.380;2024-03-08T07:35:55;36;36;
83484;PMS5003;73420;32.678;-85.380;2024-03-08T07:38:20;38;38;
83484;PMS5003;73420;32.678;-85.380;2024-03-08T07:40:46;42;41;
83484;PMS5003;73420;32.678;-85.380;2024-03-08T07:43:12;33;33;
83484;PMS5003;73420;32.678;-85.380;2024-03-08T07:45:38;41;40;
83484;PMS5003;73420;32.678;-85.380;2024-03-08T07:48:03;58;57;
83484;PMS5003;73420;32.678;-85.380;2024-03-08T07:50:29;106;106;
83484;PMS5003;73420;32.678;-85.380;2024-03-08T07:52:55;98;98;
83484;PMS5003;73420;32.678;-85.380;2024-03-08T07:55:20;84;84;
83484;PMS5003;73420;32.678;-85.380;2024-03-08T07:57:45;79;79;
83484;PMS5003;73420;32.678;-85.380;2024-03-08T08:00:11;69;69;
83484;PMS5003;73420;32.678;-85.380;2024-03-08T08:02:36;75;74;
83484;PMS5003;73420;32.678;-85.380;2024-03-08T08:05:06;81;81;
83484;PMS5003;73420;32.678;-85.380;2024-03-08T08:07:26;81;79;
83484;PMS5003;73420;32.678;-85.380;2024-03-08T08:09:52;79;79;
83484;PMS5003;73420;32.678;-85.380;2024-03-08T08:12:17;72;72;
83484;PMS5003;73420;32.678;-85.380;2024-03-08T08:14:42;59;58;
83484;PMS5003;73420;32.678;-85.380;2024-03-08T08:17:08;60;60;
83484;PMS5003;73420;32.678;-85.380;2024-03-08T08:19:33;52;52;
83484;PMS5003;73420;32.678;-85.380;2024-03-08T08:21:58;38;37;
83484;PMS5003;73420;32.678;-85.380;2024-03-08T08:24:23;26;26;
83484;PMS5003;73420;32.678;-85.380;2024-03-08T08:26:49;18;18;
83484;PMS5003;73420;32.678;-85.380;2024-03-08T08:29:14;17;16;
83484;PMS5003;73420;32.678;-85.380;2024-03-08T08:31:39;15;15;
83484;PMS5003;73420;32.678;-85.380;2024-03-08T08:34:05;10;10;
83484;PMS5003;73420;32.678;-85.380;2024-03-08T08:36:30;11;11;
83484;PMS5003;73420;32.678;-85.380;2024-03-08T08:38:56;10;9;
83484;PMS5003;73420;32.678;-85.380;2024-03-08T08:41:21;5;5;
83484;PMS5003;73420;32.678;-85.380;2024-03-08T08:43:46;12;9;
83484;PMS5003;73420;32.678;-85.380;2024-03-08T08:46:12;8;6;
83484;PMS5003;73420;32.678;-85.380;2024-03-08T08:48:37;9;9;
83484;PMS5003;73420;32.678;-85.380;2024-03-08T08:51:02;9;9;
83484;PMS5003;73420;32.678;-85.380;2024-03-08T08:53:28;10;9;
83484;PMS5003;73420;32.678;-85.380;2024-03-08T08:55:53;7;7;
83484;PMS5003;73420;32.678;-85.380;2024-03-08T08:58:19;7;7;
83484;PMS5003;73420;32.678;-85.380;2024-03-08T09:00:44;7;7;
83484;PMS5003;73420;32.678;-85.380;2024-03-08T09:03:09;6;6;
83484;PMS5003;73420;32.678;-85.380;2024-03-08T09:05:35;6;6;
83484;PMS5003;73420;32.678;-85.380;2024-03-08T09:08:00;6;6;
83484;PMS5003;73420;32.678;-85.380;2024-03-08T09:10:26;7;7;
83484;PMS5003;73420;32.678;-85.380;2024-03-08T09:12:51;9;9;
83484;PMS5003;73420;32.678;-85.380;2024-03-08T09:15:16;10;10;
83484;PMS5003;73420;32.678;-85.380;2024-03-08T09:17:42;29;27;
83484;PMS5003;73420;32.678;-85.380;2024-03-08T09:20:08;43;42;
83484;PMS5003;73420;32.678;-85.380;2024-03-08T09:22:33;40;38;
83484;PMS5003;73420;32.678;-85.380;2024-03-08T09:24:58;31;30;
83484;PMS5003;73420;32.678;-85.380;2024-03-08T09:27:24;31;31;
83484;PMS5003;73420;32.678;-85.380;2024-03-08T09:29:50;30;28;
83484;PMS5003;73420;32.678;-85.380;2024-03-08T09:32:15;16;16;
83484;PMS5003;73420;32.678;-85.380;2024-03-08T09:34:40;7;6;
83484;PMS5003;73420;32.678;-85.380;2024-03-08T09:37:06;6;6;
83484;PMS5003;73420;32.678;-85.380;2024-03-08T09:39:31;7;6;
83484;PMS5003;73420;32.678;-85.380;2024-03-08T09:41:57;7;7;
83484;PMS5003;73420;32.678;-85.380;2024-03-08T09:44:22;8;8;
83484;PMS5003;73420;32.678;-85.380;2024-03-08T09:46:47;5;5;
83484;PMS5003;73420;32.678;-85.380;2024-03-08T09:49:12;6;6;
83484;PMS5003;73420;32.678;-85.380;2024-03-08T09:51:38;9;8;
83484;PMS5003;73420;32.678;-85.380;2024-03-08T09:54:04;17;16;
83484;PMS5003;73420;32.678;-85.380;2024-03-08T09:56:30;37;36;
83484;PMS5003;73420;32.678;-85.380;2024-03-08T09:58:54;48;48;
83484;PMS5003;73420;32.678;-85.380;2024-03-08T10:01:20;54;52;
83484;PMS5003;73420;32.678;-85.380;2024-03-08T10:03:47;75;75;
83484;PMS5003;73420;32.678;-85.380;2024-03-08T10:06:10;94;93;
83484;PMS5003;73420;32.678;-85.380;2024-03-08T10:08:35;94;94;
83484;PMS5003;73420;32.678;-85.380;2024-03-08T10:11:01;77;76;
83484;PMS5003;73420;32.678;-85.380;2024-03-08T10:13:26;53;52;
83484;PMS5003;73420;32.678;-85.380;2024-03-08T10:15:52;50;50;
83484;PMS5003;73420;32.678;-85.380;2024-03-08T10:18:18;57;57;
83484;PMS5003;73420;32.678;-85.380;2024-03-08T10:20:43;65;65;
83484;PMS5003;73420;32.678;-85.380;2024-03-08T10:23:08;77;77;
83484;PMS5003;73420;32.678;-85.380;2024-03-08T10:25:34;77;77;
83484;PMS5003;73420;32.678;-85.380;2024-03-08T10:28:00;69;69;
83484;PMS5003;73420;32.678;-85.380;2024-03-08T10:30:25;50;50;
83484;PMS5003;73420;32.678;-85.380;2024-03-08T10:32:50;29;27;
83484;PMS5003;73420;32.678;-85.380;2024-03-08T10:35:16;13;13;
83484;PMS5003;73420;32.678;-85.380;2024-03-08T10:37:43;10;10;
83484;PMS5003;73420;32.678;-85.380;2024-03-08T10:40:07;6;6;
83484;PMS5003;73420;32.678;-85.380;2024-03-08T10:42:36;8;6;
83484;PMS5003;73420;32.678;-85.380;2024-03-08T10:44:58;8;7;
83484;PMS5003;73420;32.678;-85.380;2024-03-08T10:47:25;8;7;
83484;PMS5003;73420;32.678;-85.380;2024-03-08T10:49:51;10;10;
83484;PMS5003;73420;32.678;-85.380;2024-03-08T10:52:14;32;32;
83484;PMS5003;73420;32.678;-85.380;2024-03-08T10:54:39;41;41;
83484;PMS5003;73420;32.678;-85.380;2024-03-08T10:57:05;69;69;
83484;PMS5003;73420;32.678;-85.380;2024-03-08T10:59:30;67;66;
83484;PMS5003;73420;32.678;-85.380;2024-03-08T11:01:56;50;50;
83484;PMS5003;73420;32.678;-85.380;2024-03-08T11:04:22;29;29;
83484;PMS5003;73420;32.678;-85.380;2024-03-08T11:06:48;17;17;
83484;PMS5003;73420;32.678;-85.380;2024-03-08T11:11:38;16;16;
83484;PMS5003;73420;32.678;-85.380;2024-03-08T11:14:04;13;12;
83484;PMS5003;73420;32.678;-85.380;2024-03-08T11:16:38;10;9;
83484;PMS5003;73420;32.678;-85.380;2024-03-08T11:18:55;8;8;
83484;PMS5003;73420;32.678;-85.380;2024-03-08T11:21:20;7;7;
83484;PMS5003;73420;32.678;-85.380;2024-03-08T11:23:46;9;9;
83484;PMS5003;73420;32.678;-85.380;2024-03-08T11:26:17;7;7;
83484;PMS5003;73420;32.678;-85.380;2024-03-08T11:28:36;9;8;
83484;PMS5003;73420;32.678;-85.380;2024-03-08T11:33:27;7;7;
83484;PMS5003;73420;32.678;-85.380;2024-03-08T11:35:53;8;8;
83484;PMS5003;73420;32.678;-85.380;2024-03-08T11:38:18;8;6;
83484;PMS5003;73420;32.678;-85.380;2024-03-08T11:40:45;6;6;
83484;PMS5003;73420;32.678;-85.380;2024-03-08T11:43:09;9;9;
83484;PMS5003;73420;32.678;-85.380;2024-03-08T11:45:34;7;6;
83484;PMS5003;73420;32.678;-85.380;2024-03-08T11:47:59;7;7;
83484;PMS5003;73420;32.678;-85.380;2024-03-08T11:50:25;7;7;
83484;PMS5003;73420;32.678;-85.380;2024-03-08T11:52:50;9;9;
83484;PMS5003;73420;32.678;-85.380;2024-03-08T11:55:16;12;12;
83484;PMS5003;73420;32.678;-85.380;2024-03-08T11:57:41;8;8;
83484;PMS5003;73420;32.678;-85.380;2024-03-08T12:00:11;19;19;
83484;PMS5003;73420;32.678;-85.380;2024-03-08T12:02:32;17;16;
83484;PMS5003;73420;32.678;-85.380;2024-03-08T12:04:58;21;21;
83484;PMS5003;73420;32.678;-85.380;2024-03-08T12:07:23;43;41;
83484;PMS5003;73420;32.678;-85.380;2024-03-08T12:12:14;17;17;
83484;PMS5003;73420;32.678;-85.380;2024-03-08T12:14:42;11;11;
83484;PMS5003;73420;32.678;-85.380;2024-03-08T12:17:04;10;9;
83484;PMS5003;73420;32.678;-85.380;2024-03-08T12:19:30;7;7;
83484;PMS5003;73420;32.678;-85.380;2024-03-08T12:21:55;10;10;
83484;PMS5003;73420;32.678;-85.380;2024-03-08T12:24:21;10;9;
83484;PMS5003;73420;32.678;-85.380;2024-03-08T12:26:46;9;9;
83484;PMS5003;73420;32.678;-85.380;2024-03-08T12:29:16;7;7;
83484;PMS5003;73420;32.678;-85.380;2024-03-08T12:31:37;8;8;
83484;PMS5003;73420;32.678;-85.380;2024-03-08T12:34:03;8;8;
83484;PMS5003;73420;32.678;-85.380;2024-03-08T12:36:28;13;13;
83484;PMS5003;73420;32.678;-85.380;2024-03-08T12:38:54;25;25;
83484;PMS5003;73420;32.678;-85.380;2024-03-08T12:41:20;57;57;
83484;PMS5003;73420;32.678;-85.380;2024-03-08T12:43:45;53;53;
83484;PMS5003;73420;32.678;-85.380;2024-03-08T12:46:10;54;54;
83484;PMS5003;73420;32.678;-85.380;2024-03-08T12:48:35;63;62;
83484;PMS5003;73420;32.678;-85.380;2024-03-08T12:51:00;56;55;
83484;PMS5003;73420;32.678;-85.380;2024-03-08T12:53:26;21;21;
83484;PMS5003;73420;32.678;-85.380;2024-03-08T12:55:52;20;20;
83484;PMS5003;73420;32.678;-85.380;2024-03-08T12:58:17;32;32;
83484;PMS5003;73420;32.678;-85.380;2024-03-08T13:00:43;27;27;
83484;PMS5003;73420;32.678;-85.380;2024-03-08T13:03:08;49;49;
83484;PMS5003;73420;32.678;-85.380;2024-03-08T13:05:34;41;40;
83484;PMS5003;73420;32.678;-85.380;2024-03-08T13:08:00;27;27;
83484;PMS5003;73420;32.678;-85.380;2024-03-08T13:10:25;30;30;
83484;PMS5003;73420;32.678;-85.380;2024-03-08T13:12:51;38;36;
83484;PMS5003;73420;32.678;-85.380;2024-03-08T13:15:16;54;54;
83484;PMS5003;73420;32.678;-85.380;2024-03-08T13:17:41;46;46;
83484;PMS5003;73420;32.678;-85.380;2024-03-08T13:20:12;30;30;
83484;PMS5003;73420;32.678;-85.380;2024-03-08T13:22:32;20;20;
83484;PMS5003;73420;32.678;-85.380;2024-03-08T13:24:58;21;21;
83484;PMS5003;73420;32.678;-85.380;2024-03-08T13:27:23;16;15;
83484;PMS5003;73420;32.678;-85.380;2024-03-08T13:29:49;16;16;
83484;PMS5003;73420;32.678;-85.380;2024-03-08T13:32:14;23;23;
83484;PMS5003;73420;32.678;-85.380;2024-03-08T13:34:40;14;14;
83484;PMS5003;73420;32.678;-85.380;2024-03-08T13:37:05;20;20;
83484;PMS5003;73420;32.678;-85.380;2024-03-08T13:39:31;40;39;
83484;PMS5003;73420;32.678;-85.380;2024-03-08T13:41:56;40;40;
83484;PMS5003;73420;32.678;-85.380;2024-03-08T13:44:22;43;42;
83484;PMS5003;73420;32.678;-85.380;2024-03-08T13:46:47;45;44;
83484;PMS5003;73420;32.678;-85.380;2024-03-08T13:49:13;47;47;
83484;PMS5003;73420;32.678;-85.380;2024-03-08T13:51:38;28;27;
83484;PMS5003;73420;32.678;-85.380;2024-03-08T13:54:03;28;27;
83484;PMS5003;73420;32.678;-85.380;2024-03-08T13:56:29;14;12;
83484;PMS5003;73420;32.678;-85.380;2024-03-08T13:58:54;12;11;
83484;PMS5003;73420;32.678;-85.380;2024-03-08T14:01:20;11;11;
83484;PMS5003;73420;32.678;-85.380;2024-03-08T14:03:45;9;8;
83484;PMS5003;73420;32.678;-85.380;2024-03-08T14:06:11;9;9;
83484;PMS5003;73420;32.678;-85.380;2024-03-08T14:08:36;9;9;
83484;PMS5003;73420;32.678;-85.380;2024-03-08T14:11:01;16;16;
83484;PMS5003;73420;32.678;-85.380;2024-03-08T14:13:26;31;31;
83484;PMS5003;73420;32.678;-85.380;2024-03-08T14:15:52;39;38;
83484;PMS5003;73420;32.678;-85.380;2024-03-08T14:18:17;25;23;
83484;PMS5003;73420;32.678;-85.380;2024-03-08T14:20:42;49;47;
83484;PMS5003;73420;32.678;-85.380;2024-03-08T14:23:07;36;36;
83484;PMS5003;73420;32.678;-85.380;2024-03-08T14:25:33;20;20;
83484;PMS5003;73420;32.678;-85.380;2024-03-08T14:27:58;15;15;
83484;PMS5003;73420;32.678;-85.380;2024-03-08T14:30:24;27;27;
83484;PMS5003;73420;32.678;-85.380;2024-03-08T14:32:50;31;30;
83484;PMS5003;73420;32.678;-85.380;2024-03-08T14:35:15;22;22;
83484;PMS5003;73420;32.678;-85.380;2024-03-08T14:37:40;29;28;
83484;PMS5003;73420;32.678;-85.380;2024-03-08T14:40:06;27;27;
83484;PMS5003;73420;32.678;-85.380;2024-03-08T14:42:30;18;18;
83484;PMS5003;73420;32.678;-85.380;2024-03-08T14:44:56;17;17;
83484;PMS5003;73420;32.678;-85.380;2024-03-08T14:47:21;10;10;
83484;PMS5003;73420;32.678;-85.380;2024-03-08T14:49:47;6;6;
83484;PMS5003;73420;32.678;-85.380;2024-03-08T14:52:12;7;7;
83484;PMS5003;73420;32.678;-85.380;2024-03-08T14:54:37;5;5;
83484;PMS5003;73420;32.678;-85.380;2024-03-08T14:57:03;7;6;
83484;PMS5003;73420;32.678;-85.380;2024-03-08T14:59:28;5;5;
83484;PMS5003;73420;32.678;-85.380;2024-03-08T15:01:53;6;6;
83484;PMS5003;73420;32.678;-85.380;2024-03-08T15:04:19;5;5;
83484;PMS5003;73420;32.678;-85.380;2024-03-08T15:06:44;6;5;
83484;PMS5003;73420;32.678;-85.380;2024-03-08T15:09:10;7;7;
83484;PMS5003;73420;32.678;-85.380;2024-03-08T15:11:35;8;7;
83484;PMS5003;73420;32.678;-85.380;2024-03-08T15:14:00;6;6;
83484;PMS5003;73420;32.678;-85.380;2024-03-08T15:16:26;6;6;
83484;PMS5003;73420;32.678;-85.380;2024-03-08T15:18:51;5;5;
83484;PMS5003;73420;32.678;-85.380;2024-03-08T15:21:17;5;5;
83484;PMS5003;73420;32.678;-85.380;2024-03-08T15:23:42;6;5;
83484;PMS5003;73420;32.678;-85.380;2024-03-08T15:26:07;4;4;
83484;PMS5003;73420;32.678;-85.380;2024-03-08T15:28:32;5;5;
83484;PMS5003;73420;32.678;-85.380;2024-03-08T15:30:58;5;5;
83484;PMS5003;73420;32.678;-85.380;2024-03-08T15:33:23;5;5;
83484;PMS5003;73420;32.678;-85.380;2024-03-08T15:35:48;5;5;
83484;PMS5003;73420;32.678;-85.380;2024-03-08T15:38:14;5;5;
83484;PMS5003;73420;32.678;-85.380;2024-03-08T15:40:39;4;4;
83484;PMS5003;73420;32.678;-85.380;2024-03-08T15:43:04;5;5;
83484;PMS5003;73420;32.678;-85.380;2024-03-08T15:45:30;4;4;
83484;PMS5003;73420;32.678;-85.380;2024-03-08T15:47:55;5;4;
83484;PMS5003;73420;32.678;-85.380;2024-03-08T15:50:20;4;4;
83484;PMS5003;73420;32.678;-85.380;2024-03-08T15:52:46;5;5;